createdAt,value
2022-12-19T00:00:04.773Z,91.90
2022-12-19T00:02:37.751Z,91.90
2022-12-19T00:05:17.854Z,91.60
2022-12-19T00:07:49.783Z,91.90
2022-12-19T00:10:17.570Z,91.90
2022-12-19T00:12:48.066Z,91.70
2022-12-19T00:15:15.703Z,91.60
2022-12-19T00:17:43.890Z,91.90
2022-12-19T00:20:15.943Z,92.30
2022-12-19T00:22:49.446Z,92.10
2022-12-19T00:25:19.328Z,92.20
2022-12-19T00:27:50.983Z,92.10
2022-12-19T00:30:18.632Z,92.20
2022-12-19T00:32:46.467Z,92.20
2022-12-19T00:35:14.546Z,92.60
2022-12-19T00:37:46.482Z,92.70
2022-12-19T00:40:18.418Z,92.70
2022-12-19T00:42:53.171Z,92.60
2022-12-19T00:45:21.733Z,92.40
2022-12-19T00:47:49.688Z,92.60
2022-12-19T00:50:17.247Z,92.60
2022-12-19T00:52:48.231Z,92.80
2022-12-19T00:55:19.872Z,92.80
2022-12-19T00:57:50.779Z,92.60
2022-12-19T01:00:20.637Z,93.00
2022-12-19T01:02:48.249Z,92.80
2022-12-19T01:05:25.101Z,92.70
2022-12-19T01:07:52.456Z,92.70
2022-12-19T01:10:36.270Z,92.90
2022-12-19T01:13:06.506Z,92.90
2022-12-19T01:15:34.969Z,92.80
2022-12-19T01:18:03.820Z,92.70
2022-12-19T01:20:33.235Z,92.50
2022-12-19T01:23:08.045Z,92.50
2022-12-19T01:25:37.263Z,92.70
2022-12-19T01:28:15.416Z,92.70
2022-12-19T01:30:43.118Z,92.30
2022-12-19T01:33:14.999Z,91.80
2022-12-19T01:35:43.267Z,92.40
2022-12-19T01:38:18.156Z,92.10
2022-12-19T01:40:57.101Z,92.40
2022-12-19T01:43:25.990Z,92.40
2022-12-19T01:46:03.285Z,92.20
2022-12-19T01:48:40.163Z,91.90
2022-12-19T01:51:15.930Z,92.10
2022-12-19T01:54:07.116Z,92.20
2022-12-19T01:56:41.706Z,92.00
2022-12-19T01:59:16.732Z,92.10
2022-12-19T02:01:51.834Z,91.80
2022-12-19T02:04:23.740Z,92.10
2022-12-19T02:06:52.093Z,92.00
2022-12-19T02:09:37.530Z,92.20
2022-12-19T02:12:05.171Z,92.00
2022-12-19T02:14:34.140Z,91.80
2022-12-19T02:17:50.188Z,91.60
2022-12-19T02:20:22.417Z,91.70
2022-12-19T02:23:01.818Z,91.80
2022-12-19T02:26:00.696Z,91.60
2022-12-19T02:29:00.524Z,91.80
2022-12-19T02:31:45.686Z,91.90
2022-12-19T02:35:01.454Z,91.90
2022-12-19T02:37:39.758Z,91.60
2022-12-19T02:40:21.771Z,91.50
2022-12-19T02:42:54.841Z,91.70
2022-12-19T02:45:28.564Z,91.60
2022-12-19T02:48:07.343Z,91.90
2022-12-19T02:50:45.225Z,91.50
2022-12-19T02:53:22.456Z,91.40
2022-12-19T02:56:29.258Z,91.10
2022-12-19T02:59:17.992Z,90.80
2022-12-19T03:01:56.449Z,91.50
2022-12-19T03:04:36.258Z,91.10
2022-12-19T03:07:43.117Z,91.00
2022-12-19T03:10:25.109Z,91.20
2022-12-19T03:13:03.285Z,90.30
2022-12-19T03:15:32.134Z,90.50
2022-12-19T03:18:02.009Z,90.80
2022-12-19T03:20:50.276Z,90.90
2022-12-19T03:23:18.298Z,90.60
2022-12-19T03:25:55.283Z,90.30
2022-12-19T03:28:29.879Z,90.30
2022-12-19T03:31:00.187Z,90.80
2022-12-19T03:33:33.072Z,90.80
2022-12-19T03:36:07.008Z,90.70
2022-12-19T03:38:36.107Z,90.40
2022-12-19T03:41:07.049Z,90.50
2022-12-19T03:43:36.179Z,90.30
2022-12-19T03:46:09.022Z,90.30
2022-12-19T03:48:53.910Z,90.30
2022-12-19T03:51:26.290Z,90.60
2022-12-19T03:54:23.522Z,90.60
2022-12-19T03:57:11.241Z,90.60
2022-12-19T03:59:44.978Z,90.30
2022-12-19T04:02:15.612Z,90.20
2022-12-19T04:04:48.967Z,90.80
2022-12-19T04:07:20.012Z,90.60
2022-12-19T04:09:51.754Z,90.40
2022-12-19T04:12:24.643Z,90.10
2022-12-19T04:14:52.074Z,90.60
2022-12-19T04:17:52.955Z,90.30
2022-12-19T04:20:28.753Z,90.20
2022-12-19T04:23:30.847Z,89.80
2022-12-19T04:26:04.817Z,90.10
2022-12-19T04:28:47.585Z,89.80
2022-12-19T04:31:18.771Z,90.00
2022-12-19T04:33:46.904Z,90.20
2022-12-19T04:36:15.008Z,90.10
2022-12-19T04:38:42.948Z,90.50
2022-12-19T04:41:10.550Z,90.40
2022-12-19T04:43:41.586Z,90.00
2022-12-19T04:46:09.363Z,90.10
2022-12-19T04:48:37.516Z,90.00
2022-12-19T04:51:05.411Z,90.30
2022-12-19T04:53:33.616Z,89.80
2022-12-19T04:56:03.440Z,89.70
2022-12-19T04:58:36.367Z,90.40
2022-12-19T05:01:05.454Z,89.70
2022-12-19T05:03:38.550Z,89.40
2022-12-19T05:06:12.590Z,89.60
2022-12-19T05:08:44.093Z,89.70
2022-12-19T05:11:19.480Z,90.10
2022-12-19T05:13:52.069Z,89.70
2022-12-19T05:16:22.378Z,89.70
2022-12-19T05:18:50.110Z,89.60
2022-12-19T05:21:17.328Z,89.60
2022-12-19T05:23:45.269Z,89.60
2022-12-19T05:26:16.343Z,89.20
2022-12-19T05:28:43.986Z,89.50
2022-12-19T05:31:14.508Z,89.60
2022-12-19T05:33:43.359Z,90.00
2022-12-19T05:36:15.630Z,90.00
2022-12-19T05:38:46.904Z,89.30
2022-12-19T05:41:20.157Z,89.30
2022-12-19T05:43:58.594Z,89.50
2022-12-19T05:46:28.917Z,89.60
2022-12-19T05:49:05.437Z,89.50
2022-12-19T05:51:34.842Z,89.50
2022-12-19T05:54:03.250Z,89.40
2022-12-19T05:56:33.155Z,88.30
2022-12-19T05:59:00.921Z,89.00
2022-12-19T06:01:33.040Z,89.10
2022-12-19T06:04:00.288Z,89.50
2022-12-19T06:06:28.479Z,89.10
2022-12-19T06:09:00.187Z,88.70
2022-12-19T06:11:28.179Z,89.10
2022-12-19T06:13:58.211Z,89.10
2022-12-19T06:16:30.169Z,89.30
2022-12-19T06:19:00.106Z,89.40
2022-12-19T06:21:28.722Z,89.20
2022-12-19T06:24:02.463Z,89.30
2022-12-19T06:26:35.729Z,89.40
2022-12-19T06:29:03.765Z,89.40
2022-12-19T06:31:37.962Z,90.00
2022-12-19T06:34:05.735Z,89.90
2022-12-19T06:36:33.819Z,89.60
2022-12-19T06:39:04.946Z,90.00
2022-12-19T06:41:50.896Z,89.80
2022-12-19T06:44:26.725Z,89.30
2022-12-19T06:50:03.510Z,89.30
2022-12-19T06:52:37.337Z,89.20
2022-12-19T06:55:07.256Z,89.60
2022-12-19T06:57:47.096Z,89.90
2022-12-19T07:00:15.431Z,89.90
2022-12-19T07:02:51.628Z,89.50
2022-12-19T07:05:22.313Z,89.40
2022-12-19T07:07:57.285Z,89.60
2022-12-19T07:10:24.476Z,89.70
2022-12-19T07:12:58.659Z,89.50
2022-12-19T07:15:34.287Z,89.30
2022-12-19T07:18:04.631Z,89.30
2022-12-19T07:20:38.715Z,89.20
2022-12-19T07:23:19.377Z,89.40
2022-12-19T07:26:02.605Z,90.20
2022-12-19T07:28:39.902Z,89.80
2022-12-19T07:31:07.617Z,89.70
2022-12-19T07:33:40.055Z,90.30
2022-12-19T07:36:08.920Z,89.50
2022-12-19T07:39:00.967Z,89.30
2022-12-19T07:41:38.765Z,89.50
2022-12-19T07:44:10.216Z,90.10
2022-12-19T07:46:37.968Z,89.60
2022-12-19T07:49:08.908Z,89.70
2022-12-19T07:51:36.898Z,89.70
2022-12-19T07:54:09.885Z,90.10
2022-12-19T07:56:37.115Z,90.50
2022-12-19T07:59:19.121Z,90.80
2022-12-19T08:01:53.211Z,90.50
2022-12-19T08:04:26.984Z,90.50
2022-12-19T08:06:54.654Z,90.70
2022-12-19T08:09:37.295Z,90.90
2022-12-19T08:12:07.859Z,90.90
2022-12-19T08:14:57.168Z,91.00
2022-12-19T08:17:26.417Z,91.00
2022-12-19T08:20:04.714Z,90.90
2022-12-19T08:22:36.081Z,90.80
2022-12-19T08:25:04.045Z,90.80
2022-12-19T08:27:42.842Z,90.50
2022-12-19T08:30:14.393Z,89.90
2022-12-19T08:32:41.739Z,90.00
2022-12-19T08:35:13.867Z,89.60
2022-12-19T08:37:49.483Z,89.30
2022-12-19T08:40:18.865Z,89.40
2022-12-19T08:42:46.239Z,90.10
2022-12-19T08:45:18.704Z,89.50
2022-12-19T08:47:50.912Z,89.20
2022-12-19T08:50:18.738Z,88.50
2022-12-19T08:52:50.599Z,88.70
2022-12-19T08:55:18.879Z,89.40
2022-12-19T08:57:49.093Z,88.90
2022-12-19T09:00:21.237Z,89.10
2022-12-19T09:03:00.140Z,88.90
2022-12-19T09:06:01.029Z,88.20
2022-12-19T09:09:06.738Z,88.00
2022-12-19T09:12:25.366Z,87.80
2022-12-19T09:15:11.596Z,87.10
2022-12-19T09:18:00.153Z,86.30
2022-12-19T09:20:30.066Z,86.30
2022-12-19T09:23:10.043Z,85.70
2022-12-19T09:25:45.087Z,85.40
2022-12-19T09:28:28.341Z,86.10
2022-12-19T09:31:00.568Z,86.70
2022-12-19T09:33:31.276Z,87.20
2022-12-19T09:36:09.931Z,86.70
2022-12-19T09:38:38.245Z,85.70
2022-12-19T09:41:30.118Z,86.30
2022-12-19T09:44:12.409Z,85.90
2022-12-19T09:47:21.547Z,86.30
2022-12-19T09:49:54.234Z,86.60
2022-12-19T09:52:53.019Z,86.70
2022-12-19T09:55:37.099Z,86.10
2022-12-19T10:01:53.356Z,86.10
2022-12-19T10:04:32.675Z,86.30
2022-12-19T10:07:19.849Z,86.80
2022-12-19T10:12:25.373Z,87.00
2022-12-19T10:13:51.629Z,87.20
2022-12-19T10:16:40.706Z,86.30
2022-12-19T10:19:58.670Z,85.90
2022-12-19T10:23:01.152Z,84.90
2022-12-19T10:25:43.112Z,84.10
2022-12-19T10:28:25.871Z,83.20
2022-12-19T10:31:42.785Z,83.40
2022-12-19T10:34:59.679Z,83.60
2022-12-19T10:37:42.129Z,84.40
2022-12-19T10:40:28.880Z,84.10
2022-12-19T10:43:33.671Z,84.80
2022-12-19T10:46:24.457Z,84.50
2022-12-19T10:48:57.015Z,84.20
2022-12-19T10:51:31.426Z,84.70
2022-12-19T10:54:09.480Z,83.80
2022-12-19T10:56:49.830Z,83.60
2022-12-19T10:59:21.693Z,84.10
2022-12-19T11:02:00.780Z,84.50
2022-12-19T11:04:32.362Z,84.40
2022-12-19T11:07:03.683Z,84.30
2022-12-19T11:09:44.576Z,84.20
2022-12-19T11:16:50.008Z,84.60
2022-12-19T11:19:41.551Z,84.00
2022-12-19T11:27:18.407Z,83.20
2022-12-19T11:29:25.302Z,83.00
2022-12-19T11:29:54.223Z,83.50
2022-12-19T11:30:25.738Z,83.30
2022-12-19T11:33:21.642Z,83.20
2022-12-19T11:36:03.293Z,83.40
2022-12-19T11:38:53.403Z,83.50
2022-12-19T11:45:04.318Z,83.50
2022-12-19T11:48:01.158Z,83.70
2022-12-19T11:50:43.593Z,84.20
2022-12-19T11:53:54.568Z,83.90
2022-12-19T11:56:32.585Z,84.00
2022-12-19T11:59:42.738Z,84.20
2022-12-19T12:02:44.226Z,83.60
2022-12-19T12:05:33.327Z,84.50
2022-12-19T12:09:57.687Z,84.20
2022-12-19T12:21:00.267Z,83.50
2022-12-19T12:22:50.079Z,83.40
2022-12-19T12:28:57.232Z,83.60
2022-12-19T12:31:27.955Z,84.30
2022-12-19T12:31:47.726Z,84.10
2022-12-19T12:31:48.509Z,85.00
2022-12-19T12:31:50.787Z,84.30
2022-12-19T12:35:33.127Z,84.00
2022-12-19T12:40:44.947Z,83.70
2022-12-19T12:43:38.463Z,83.50
2022-12-19T12:46:26.535Z,83.10
2022-12-19T12:49:12.953Z,84.00
2022-12-19T12:51:48.317Z,84.50
2022-12-19T12:54:34.088Z,84.40
2022-12-19T12:57:05.481Z,84.10
2022-12-19T12:59:33.063Z,84.00
2022-12-19T13:02:27.947Z,84.00
2022-12-19T13:05:01.674Z,84.10
2022-12-19T13:07:59.969Z,83.60
2022-12-19T13:10:33.871Z,84.00
2022-12-19T13:13:25.656Z,83.70
2022-12-19T13:16:08.912Z,84.10
2022-12-19T13:18:40.083Z,84.10
2022-12-19T13:21:09.922Z,84.10
2022-12-19T13:23:47.942Z,84.70
2022-12-19T13:26:49.532Z,84.10
2022-12-19T13:29:56.930Z,83.90
2022-12-19T13:32:43.570Z,84.40
2022-12-19T13:35:59.826Z,84.30
2022-12-19T13:39:57.349Z,84.40
2022-12-19T13:42:15.035Z,84.80
2022-12-19T13:44:42.522Z,84.80
2022-12-19T13:47:21.960Z,85.10
2022-12-19T13:49:52.642Z,85.30
2022-12-19T13:52:23.053Z,85.30
2022-12-19T13:55:09.326Z,85.00
2022-12-19T13:57:44.168Z,85.60
2022-12-19T14:00:19.042Z,85.90
2022-12-19T14:02:59.733Z,86.00
2022-12-19T14:06:16.561Z,86.40
2022-12-19T14:08:38.148Z,86.20
2022-12-19T14:11:44.198Z,86.40
2022-12-19T14:14:32.335Z,86.50
2022-12-19T14:17:13.153Z,86.50
2022-12-19T14:19:44.456Z,86.50
2022-12-19T14:22:25.847Z,86.70
2022-12-19T14:25:45.210Z,86.40
2022-12-19T14:28:25.618Z,86.80
2022-12-19T14:31:00.664Z,86.90
2022-12-19T14:33:44.185Z,87.10
2022-12-19T14:36:27.398Z,87.20
2022-12-19T14:39:23.964Z,87.10
2022-12-19T14:43:57.136Z,87.10
2022-12-19T14:52:50.880Z,87.00
2022-12-19T14:54:11.923Z,87.20
2022-12-19T14:54:37.065Z,87.20
2022-12-19T14:58:07.942Z,87.20
2022-12-19T15:01:08.983Z,87.10
2022-12-19T15:03:28.089Z,87.20
2022-12-19T15:07:07.429Z,87.20
2022-12-19T15:10:58.388Z,87.00
2022-12-19T15:14:48.360Z,87.00
2022-12-19T15:15:48.765Z,86.80
2022-12-19T15:18:34.749Z,86.80
2022-12-19T15:21:11.016Z,87.20
2022-12-19T15:23:38.737Z,87.20
2022-12-19T15:26:26.652Z,86.90
2022-12-19T15:28:56.520Z,86.60
2022-12-19T15:31:40.471Z,86.50
2022-12-19T15:36:59.086Z,86.10
2022-12-19T15:39:29.879Z,85.90
2022-12-19T15:41:59.654Z,85.40
2022-12-19T15:44:39.668Z,85.30
2022-12-19T15:47:17.187Z,85.40
2022-12-19T15:49:48.642Z,85.40
2022-12-19T15:52:21.509Z,85.00
2022-12-19T15:54:51.982Z,85.30
2022-12-19T15:57:28.462Z,85.00
2022-12-19T16:00:02.361Z,85.20
2022-12-19T16:05:49.715Z,84.90
2022-12-19T16:08:25.684Z,84.90
2022-12-19T16:11:02.107Z,85.20
2022-12-19T16:13:31.666Z,84.90
2022-12-19T16:16:15.335Z,84.90
2022-12-19T16:18:47.568Z,85.00
2022-12-19T16:21:29.615Z,85.20
2022-12-19T16:24:10.184Z,85.10
2022-12-19T16:26:43.913Z,85.00
2022-12-19T16:29:31.453Z,85.00
2022-12-19T16:32:00.709Z,85.00
2022-12-19T16:34:28.486Z,84.70
2022-12-19T16:36:55.861Z,84.90
2022-12-19T16:39:23.449Z,84.50
2022-12-19T16:41:54.419Z,84.60
2022-12-19T16:44:25.627Z,84.30
2022-12-19T16:46:55.576Z,84.40
2022-12-19T16:49:29.751Z,84.20
2022-12-19T16:52:00.015Z,83.80
2022-12-19T16:54:33.662Z,83.90
2022-12-19T16:57:05.337Z,84.10
2022-12-19T16:59:54.546Z,84.60
2022-12-19T17:02:44.677Z,84.40
2022-12-19T17:05:25.277Z,84.00
2022-12-19T17:08:13.003Z,83.70
2022-12-19T17:10:43.243Z,83.80
2022-12-19T17:13:13.093Z,83.30
2022-12-19T17:15:51.031Z,83.20
2022-12-19T17:18:33.528Z,83.00
2022-12-19T17:21:03.614Z,82.70
2022-12-19T17:23:33.970Z,83.20
2022-12-19T17:26:04.496Z,82.80
2022-12-19T17:28:41.561Z,82.10
2022-12-19T17:31:42.858Z,81.50
2022-12-19T17:34:33.855Z,81.30
2022-12-19T17:37:04.071Z,81.10
2022-12-19T17:39:35.100Z,80.80
2022-12-19T17:42:23.784Z,81.00
2022-12-19T17:44:51.918Z,80.60
2022-12-19T17:47:20.886Z,80.90
2022-12-19T17:49:49.498Z,80.30
2022-12-19T17:52:21.674Z,80.50
2022-12-19T17:54:51.291Z,79.50
2022-12-19T17:57:20.180Z,80.10
2022-12-19T17:59:47.758Z,79.10
2022-12-19T18:02:30.579Z,79.40
2022-12-19T18:05:04.686Z,79.10
2022-12-19T18:07:32.393Z,79.40
2022-12-19T18:10:00.692Z,79.30
2022-12-19T18:12:28.311Z,78.70
2022-12-19T18:14:55.796Z,78.90
2022-12-19T18:17:25.856Z,78.20
2022-12-19T18:19:55.631Z,78.20
2022-12-19T18:22:25.710Z,78.50
2022-12-19T18:24:53.069Z,78.30
2022-12-19T18:27:23.323Z,78.50
2022-12-19T18:29:51.137Z,77.90
2022-12-19T18:32:22.148Z,79.20
2022-12-19T18:34:49.752Z,78.80
2022-12-19T18:37:19.880Z,78.60
2022-12-19T18:39:49.841Z,79.10
2022-12-19T18:42:24.133Z,78.30
2022-12-19T18:44:56.197Z,78.80
2022-12-19T18:47:25.787Z,78.80
2022-12-19T18:49:52.963Z,78.50
2022-12-19T18:52:20.887Z,77.70
2022-12-19T18:54:47.938Z,77.60
2022-12-19T18:57:15.368Z,77.80
2022-12-19T18:59:42.807Z,77.90
2022-12-19T19:02:27.358Z,77.80
2022-12-19T19:05:00.896Z,77.70
2022-12-19T19:07:34.160Z,78.00
2022-12-19T19:10:05.446Z,78.20
2022-12-19T19:12:32.946Z,78.00
2022-12-19T19:15:08.296Z,77.90
2022-12-19T19:17:36.346Z,78.40
2022-12-19T19:20:04.726Z,78.10
2022-12-19T19:22:37.582Z,78.50
2022-12-19T19:25:05.863Z,78.60
2022-12-19T19:27:33.800Z,78.40
2022-12-19T19:30:01.111Z,78.40
2022-12-19T19:32:32.783Z,78.40
2022-12-19T19:35:06.155Z,78.50
2022-12-19T19:37:35.076Z,79.10
2022-12-19T19:40:06.603Z,78.40
2022-12-19T19:42:33.957Z,78.70
2022-12-19T19:45:04.909Z,78.50
2022-12-19T19:47:39.441Z,78.50
2022-12-19T19:50:08.582Z,78.60
2022-12-19T19:52:37.793Z,78.80
2022-12-19T19:55:11.995Z,79.00
2022-12-19T19:57:40.669Z,79.00
2022-12-19T20:00:09.813Z,78.50
2022-12-19T20:02:37.290Z,79.10
2022-12-19T20:05:06.338Z,79.50
2022-12-19T20:07:33.848Z,79.50
2022-12-19T20:10:01.075Z,79.40
2022-12-19T20:12:30.666Z,79.10
2022-12-19T20:14:58.051Z,78.60
2022-12-19T20:17:25.452Z,78.50
2022-12-19T20:19:56.287Z,78.40
2022-12-19T20:22:23.976Z,79.10
2022-12-19T20:24:51.367Z,78.30
2022-12-19T20:27:18.665Z,78.30
2022-12-19T20:29:53.739Z,78.60
2022-12-19T20:32:21.314Z,79.10
2022-12-19T20:34:48.462Z,78.50
2022-12-19T20:37:15.493Z,78.00
2022-12-19T20:39:42.723Z,79.10
2022-12-19T20:42:10.778Z,79.00
2022-12-19T20:44:41.479Z,79.20
2022-12-19T20:47:09.090Z,78.70
2022-12-19T20:49:36.751Z,78.80
2022-12-19T20:52:11.203Z,79.40
2022-12-19T20:54:41.586Z,79.10
2022-12-19T20:57:11.447Z,79.40
2022-12-19T20:59:38.729Z,79.20
2022-12-19T21:02:08.535Z,78.50
2022-12-19T21:04:36.307Z,79.00
2022-12-19T21:07:05.424Z,78.80
2022-12-19T21:09:50.327Z,79.40
2022-12-19T21:12:20.259Z,79.60
2022-12-19T21:14:47.561Z,79.00
2022-12-19T21:17:18.905Z,79.00
2022-12-19T21:19:47.586Z,78.90
2022-12-19T21:22:15.555Z,79.10
2022-12-19T21:24:43.232Z,79.60
2022-12-19T21:27:11.054Z,79.10
2022-12-19T21:29:41.129Z,79.40
2022-12-19T21:32:13.446Z,80.00
2022-12-19T21:34:45.956Z,80.20
2022-12-19T21:37:14.118Z,79.90
2022-12-19T21:39:41.344Z,80.10
2022-12-19T21:42:08.568Z,80.10
2022-12-19T21:44:36.208Z,80.30
2022-12-19T21:47:04.261Z,80.10
2022-12-19T21:49:34.900Z,80.00
2022-12-19T21:52:05.539Z,80.30
2022-12-19T21:54:39.355Z,80.70
2022-12-19T21:57:12.843Z,80.60
2022-12-19T21:59:40.579Z,80.80
2022-12-19T22:02:10.869Z,80.90
2022-12-19T22:04:38.245Z,81.00
2022-12-19T22:07:06.247Z,81.00
2022-12-19T22:09:33.999Z,81.20
2022-12-19T22:12:01.517Z,80.80
2022-12-19T22:14:28.976Z,80.80
2022-12-19T22:16:56.310Z,81.10
2022-12-19T22:19:23.439Z,81.30
2022-12-19T22:21:56.284Z,81.40
2022-12-19T22:24:27.474Z,81.30
2022-12-19T22:26:55.059Z,81.50
2022-12-19T22:29:22.273Z,81.00
2022-12-19T22:31:52.273Z,81.50
2022-12-19T22:34:21.392Z,81.50
2022-12-19T22:36:49.172Z,81.60
2022-12-19T22:39:31.489Z,81.40
2022-12-19T22:41:58.898Z,81.60
2022-12-19T22:44:26.191Z,81.40
2022-12-19T22:46:53.932Z,81.40
2022-12-19T22:49:21.778Z,81.50
2022-12-19T22:51:50.202Z,81.50
2022-12-19T22:54:17.752Z,81.70
2022-12-19T22:56:50.749Z,81.50
2022-12-19T22:59:22.995Z,81.40
2022-12-19T23:01:50.489Z,81.60
2022-12-19T23:04:20.658Z,81.90
2022-12-19T23:06:51.325Z,82.30
2022-12-19T23:09:19.107Z,82.10
2022-12-19T23:11:49.205Z,82.50
2022-12-19T23:14:21.721Z,82.80
2022-12-19T23:16:49.983Z,82.80
2022-12-19T23:19:21.865Z,83.00
2022-12-19T23:21:48.901Z,83.30
2022-12-19T23:24:19.608Z,83.10
2022-12-19T23:26:46.763Z,82.90
2022-12-19T23:29:15.759Z,83.10
2022-12-19T23:31:44.976Z,83.30
2022-12-19T23:34:13.871Z,83.40
2022-12-19T23:39:34.931Z,83.60
2022-12-19T23:42:02.218Z,83.70
2022-12-19T23:44:32.951Z,83.80
2022-12-19T23:47:03.608Z,84.00
2022-12-19T23:49:34.228Z,84.20
2022-12-19T23:52:02.021Z,84.70
2022-12-19T23:54:29.821Z,84.40
2022-12-19T23:56:57.231Z,84.70
2022-12-19T23:59:24.492Z,84.90
